| time (UTC) | temp F | wind direction | speed knots | gust knots | rain 1hr in | rain 24hr in | rain mn in | humidity % | barometer mb |
| 20260903165524 | 69 | 138 | 0.0 | 1.7 | 0.33 | 0.51 | 0.51 | 97 | 1014.5 |
| 20260903165024 | 69 | 0 | 0.0 | 0.0 | 0.33 | 0.51 | 0.51 | 97 | 1014.7 |
| 20260903164545 | 69 | 0 | 0.0 | 2.6 | 0.33 | 0.51 | 0.51 | 97 | 1014.6 |
| 20260903164016 | 68 | 0 | 0.0 | 5.2 | 0.33 | 0.51 | 0.51 | 97 | 1014.6 |
| 20260903163517 | 67 | 245 | 0.9 | 14.8 | 0.35 | 0.51 | 0.51 | 96 | 1014.7 |
| 20260903163036 | 67 | 236 | 3.5 | 40.0 | 0.37 | 0.50 | 0.50 | 96 | 1015.1 |
| 20260903162518 | 66 | 211 | 7.8 | 40.0 | 0.26 | 0.39 | 0.39 | 96 | 1015.8 |
| 20260903162018 | 66 | 181 | 2.6 | 7.8 | 0.12 | 0.23 | 0.23 | 96 | 1016.3 |
| 20260903161537 | 66 | 184 | 0.9 | 2.6 | 0.17 | 0.19 | 0.19 | 96 | 1016.1 |
| 20260903161015 | 66 | 193 | 0.0 | 7.8 | 0.19 | 0.19 | 0.19 | 96 | 1016.1 |
| 20260903160524 | 66 | 0 | 0.0 | 7.8 | 0.19 | 0.19 | 0.19 | 96 | 1016.4 |
| 20260903160044 | 65 | 30 | 2.6 | 7.8 | 0.19 | 0.19 | 0.19 | 95 | 1016.2 |
| 20260903155521 | 65 | 0 | 0.0 | 7.8 | 0.18 | 0.18 | 0.18 | 95 | 1016.4 |
| 20260903155020 | 65 | 0 | 0.0 | 8.7 | 0.18 | 0.18 | 0.18 | 95 | 1016.6 |
| 20260903154539 | 66 | 184 | 3.5 | 11.3 | 0.18 | 0.18 | 0.18 | 94 | 1016.5 |
| 20260903154015 | 66 | 219 | 2.6 | 26.9 | 0.18 | 0.18 | 0.18 | 94 | 1016.9 |
| 20260903153516 | 67 | 159 | 7.0 | 29.5 | 0.16 | 0.16 | 0.16 | 93 | 1017.3 |
| 20260903153039 | 69 | 205 | 12.2 | 29.5 | 0.13 | 0.13 | 0.13 | 91 | 1018.1 |
| 20260903152517 | 72 | 237 | 10.4 | 26.1 | 0.13 | 0.13 | 0.13 | 90 | 1018.2 |
| 20260903152021 | 76 | 232 | 13.0 | 24.3 | 0.11 | 0.11 | 0.11 | 85 | 1018.2 |
| 20260903151538 | 78 | 235 | 2.6 | 6.1 | 0.01 | 0.01 | 0.01 | 81 | 1017.2 |
| 20260903151020 | 79 | 274 | 0.9 | 2.6 | 0.00 | 0.00 | 0.00 | 79 | 1016.7 |
| 20260903150520 | 80 | 0 | 0.0 | 0.0 | 0.00 | 0.00 | 0.00 | 78 | 1015.9 |
| 20260903150058 | 80 | 0 | 0.0 | 0.0 | 0.00 | 0.00 | 0.00 | 77 | 1015.6 |
| 20260903145518 | 80 | 0 | 0.0 | 0.0 | 0.00 | 0.00 | 0.00 | 77 | 1015.3 |
| 20260903145018 | 81 | 0 | 0.0 | 0.0 | 0.00 | 0.00 | 0.00 | 76 | 1015.1 |
| 20260903144537 | 81 | 0 | 0.0 | 0.0 | 0.00 | 0.00 | 0.00 | 74 | 1015.0 |
| 20260903144020 | 81 | 0 | 0.0 | 1.7 | 0.00 | 0.00 | 0.00 | 74 | 1015.0 |
| 20260903143517 | 82 | 0 | 0.0 | 2.6 | 0.00 | 0.00 | 0.00 | 72 | 1015.2 |
| 20260903143038 | 82 | 0 | 0.0 | 2.6 | 0.00 | 0.00 | 0.00 | 74 | 1015.1 |
| 20260903142525 | 82 | 0 | 0.0 | 2.6 | 0.00 | 0.00 | 0.00 | 73 | 1015.3 |
| 20260903142022 | 82 | 172 | 0.0 | 2.6 | 0.00 | 0.00 | 0.00 | 73 | 1015.1 |
| 20260903141541 | 82 | 0 | 0.0 | 2.6 | 0.00 | 0.00 | 0.00 | 74 | 1015.1 |
| 20260903141018 | 81 | 240 | 0.0 | 2.6 | 0.00 | 0.00 | 0.00 | 74 | 1015.2 |
| 20260903140518 | 81 | 0 | 0.0 | 1.7 | 0.00 | 0.00 | 0.00 | 76 | 1015.2 |
| 20260903140040 | 80 | 292 | 0.0 | 2.6 | 0.00 | 0.00 | 0.00 | 76 | 1015.0 |
| 20260903135519 | 80 | 219 | 0.0 | 2.6 | 0.00 | 0.00 | 0.00 | 75 | 1015.0 |
| 20260903135016 | 81 | 0 | 0.0 | 1.7 | 0.00 | 0.00 | 0.00 | 74 | 1015.0 |
| 20260903134547 | 81 | 0 | 0.0 | 0.9 | 0.00 | 0.00 | 0.00 | 76 | 1015.2 |
| 20260903134019 | 80 | 0 | 0.0 | 0.9 | 0.00 | 0.00 | 0.00 | 77 | 1015.3 |
| 20260903133516 | 79 | 0 | 0.0 | 1.7 | 0.00 | 0.00 | 0.00 | 80 | 1015.3 |
| 20260903133040 | 79 | 203 | 0.0 | 1.7 | 0.00 | 0.00 | 0.00 | 80 | 1015.2 |
| 20260903132518 | 78 | 231 | 0.0 | 0.9 | 0.00 | 0.00 | 0.00 | 80 | 1015.4 |
| 20260903132018 | 79 | 0 | 0.0 | 0.0 | 0.00 | 0.00 | 0.00 | 79 | 1015.3 |
| 20260903131540 | 78 | 0 | 0.0 | 0.9 | 0.00 | 0.00 | 0.00 | 80 | 1015.3 |
| 20260903131021 | 77 | 0 | 0.0 | 0.9 | 0.00 | 0.00 | 0.00 | 82 | 1015.3 |
| 20260903130518 | 77 | 0 | 0.0 | 0.9 | 0.00 | 0.00 | 0.00 | 83 | 1015.3 |
| 20260903130034 | 77 | 0 | 0.0 | 0.9 | 0.00 | 0.00 | 0.00 | 83 | 1015.3 |
| 20260903125522 | 76 | 0 | 0.0 | 0.0 | 0.00 | 0.00 | 0.00 | 83 | 1015.4 |
| 20260903125019 | 76 | 0 | 0.0 | 0.0 | 0.00 | 0.00 | 0.00 | 83 | 1015.5 |
| 20260903124548 | 77 | 0 | 0.0 | 0.0 | 0.00 | 0.00 | 0.00 | 81 | 1015.6 |
| 20260903124017 | 77 | 0 | 0.0 | 0.0 | 0.00 | 0.00 | 0.00 | 83 | 1015.5 |
| 20260903123519 | 76 | 0 | 0.0 | 0.0 | 0.00 | 0.00 | 0.00 | 84 | 1015.5 |
| 20260903123037 | 75 | 0 | 0.0 | 0.0 | 0.00 | 0.00 | 0.00 | 85 | 1015.6 |
| 20260903122516 | 74 | 0 | 0.0 | 0.0 | 0.00 | 0.00 | 0.00 | 87 | 1015.7 |
| 20260903122019 | 74 | 0 | 0.0 | 0.0 | 0.00 | 0.00 | 0.00 | 87 | 1015.7 |
| 20260903121537 | 74 | 0 | 0.0 | 0.0 | 0.00 | 0.00 | 0.00 | 88 | 1015.6 |
| 20260903121017 | 73 | 0 | 0.0 | 0.0 | 0.00 | 0.00 | 0.00 | 89 | 1015.6 |
| 20260903120522 | 73 | 0 | 0.0 | 0.0 | 0.00 | 0.00 | 0.00 | 89 | 1015.5 |
| 20260903120034 | 72 | 0 | 0.0 | 0.0 | 0.00 | 0.00 | 0.00 | 90 | 1015.5 |
| 20260903115519 | 72 | 0 | 0.0 | 0.0 | 0.00 | 0.00 | 0.00 | 91 | 1015.6 |
| 20260903115021 | 71 | 0 | 0.0 | 0.0 | 0.00 | 0.00 | 0.00 | 91 | 1015.6 |
| 20260903114539 | 71 | 0 | 0.0 | 0.0 | 0.00 | 0.00 | 0.00 | 92 | 1015.5 |
| 20260903114017 | 71 | 0 | 0.0 | 0.0 | 0.00 | 0.00 | 0.00 | 92 | 1015.5 |
| 20260903113515 | 70 | 0 | 0.0 | 0.0 | 0.00 | 0.00 | 0.00 | 93 | 1015.4 |
| 20260903113042 | 70 | 0 | 0.0 | 0.9 | 0.00 | 0.00 | 0.00 | 93 | 1015.4 |
| 20260903112516 | 70 | 0 | 0.0 | 0.9 | 0.00 | 0.00 | 0.00 | 93 | 1015.4 |
| 20260903112016 | 70 | 0 | 0.0 | 0.9 | 0.00 | 0.00 | 0.00 | 93 | 1015.4 |
| 20260903111538 | 70 | 0 | 0.0 | 0.9 | 0.00 | 0.00 | 0.00 | 93 | 1015.3 |
| 20260903111017 | 70 | 0 | 0.0 | 0.9 | 0.00 | 0.00 | 0.00 | 93 | 1015.2 |
| 20260903110517 | 70 | 0 | 0.0 | 0.9 | 0.00 | 0.00 | 0.00 | 93 | 1015.3 |
| 20260903110040 | 70 | 0 | 0.0 | 1.7 | 0.00 | 0.00 | 0.00 | 93 | 1015.2 |
| 20260903105518 | 70 | 0 | 0.0 | 1.7 | 0.00 | 0.00 | 0.00 | 93 | 1015.2 |
| 20260903105018 | 70 | 0 | 0.0 | 0.9 | 0.00 | 0.00 | 0.00 | 92 | 1015.1 |
| 20260903104536 | 70 | 0 | 0.0 | 0.0 | 0.00 | 0.00 | 0.00 | 92 | 1015.0 |
| 20260903104017 | 70 | 0 | 0.0 | 0.0 | 0.00 | 0.00 | 0.00 | 92 | 1015.0 |
| 20260903103517 | 70 | 0 | 0.0 | 0.0 | 0.00 | 0.00 | 0.00 | 91 | 1014.9 |
| 20260903103039 | 70 | 0 | 0.0 | 0.0 | 0.00 | 0.00 | 0.00 | 91 | 1014.9 |
| 20260903102517 | 70 | 0 | 0.0 | 0.0 | 0.00 | 0.00 | 0.00 | 91 | 1014.9 |
| 20260903102017 | 70 | 0 | 0.0 | 0.0 | 0.00 | 0.00 | 0.00 | 91 | 1014.9 |
| 20260903101537 | 71 | 0 | 0.0 | 0.0 | 0.00 | 0.00 | 0.00 | 91 | 1014.7 |
| 20260903101020 | 71 | 0 | 0.0 | 0.0 | 0.00 | 0.00 | 0.00 | 91 | 1014.8 |
| 20260903100519 | 71 | 0 | 0.0 | 0.0 | 0.00 | 0.00 | 0.00 | 90 | 1014.8 |
| 20260903100039 | 71 | 0 | 0.0 | 0.0 | 0.00 | 0.00 | 0.00 | 90 | 1014.8 |
| 20260903095519 | 71 | 0 | 0.0 | 0.9 | 0.00 | 0.00 | 0.00 | 90 | 1014.9 |
| 20260903095018 | 71 | 0 | 0.0 | 0.9 | 0.00 | 0.00 | 0.00 | 90 | 1014.9 |
| 20260903094551 | 71 | 0 | 0.0 | 1.7 | 0.00 | 0.00 | 0.00 | 89 | 1014.8 |
| 20260903094016 | 71 | 0 | 0.0 | 1.7 | 0.00 | 0.00 | 0.00 | 89 | 1014.8 |
| 20260903093520 | 71 | 0 | 0.0 | 2.6 | 0.00 | 0.00 | 0.00 | 89 | 1014.7 |
| 20260903093037 | 72 | 0 | 0.0 | 2.6 | 0.00 | 0.00 | 0.00 | 89 | 1014.6 |
| 20260903092520 | 72 | 0 | 0.0 | 2.6 | 0.00 | 0.00 | 0.00 | 89 | 1014.6 |
| 20260903092019 | 72 | 255 | 0.0 | 2.6 | 0.00 | 0.00 | 0.00 | 89 | 1014.5 |
| 20260903091543 | 72 | 0 | 0.0 | 2.6 | 0.00 | 0.00 | 0.00 | 90 | 1014.5 |
| 20260903091017 | 72 | 0 | 0.9 | 2.6 | 0.00 | 0.00 | 0.00 | 90 | 1014.4 |
| 20260903090518 | 72 | 0 | 0.0 | 2.6 | 0.00 | 0.00 | 0.00 | 90 | 1014.4 |
| 20260903090038 | 72 | 0 | 0.0 | 2.6 | 0.00 | 0.00 | 0.00 | 90 | 1014.4 |
| 20260903085517 | 72 | 219 | 0.9 | 2.6 | 0.00 | 0.00 | 0.00 | 90 | 1014.4 |
| 20260903085019 | 72 | 0 | 0.0 | 0.9 | 0.00 | 0.00 | 0.00 | 89 | 1014.4 |
| 20260903084544 | 72 | 0 | 0.0 | 0.9 | 0.00 | 0.00 | 0.00 | 89 | 1014.3 |
| 20260903084016 | 72 | 0 | 0.0 | 2.6 | 0.00 | 0.00 | 0.00 | 89 | 1014.3 |
| 20260903083521 | 72 | 0 | 0.0 | 2.6 | 0.00 | 0.00 | 0.00 | 89 | 1014.2 |
| 20260903083037 | 72 | 0 | 0.0 | 2.6 | 0.00 | 0.00 | 0.00 | 89 | 1014.1 |
| 20260903082519 | 72 | 0 | 0.0 | 3.5 | 0.00 | 0.00 | 0.00 | 88 | 1014.1 |
| 20260903082017 | 72 | 232 | 1.7 | 3.5 | 0.00 | 0.00 | 0.00 | 88 | 1014.0 |
| 20260903081535 | 73 | 233 | 0.9 | 3.5 | 0.00 | 0.00 | 0.00 | 88 | 1014.0 |
| 20260903081017 | 73 | 231 | 0.9 | 3.5 | 0.00 | 0.00 | 0.00 | 88 | 1014.1 |
| 20260903080516 | 73 | 224 | 0.9 | 3.5 | 0.00 | 0.00 | 0.00 | 87 | 1014.1 |
| 20260903080034 | 73 | 257 | 0.9 | 4.3 | 0.00 | 0.00 | 0.00 | 87 | 1014.2 |
| 20260903075518 | 73 | 221 | 1.7 | 4.3 | 0.00 | 0.00 | 0.00 | 87 | 1014.1 |
| 20260903075018 | 73 | 226 | 0.9 | 3.5 | 0.00 | 0.00 | 0.00 | 87 | 1014.2 |
| 20260903074545 | 73 | 216 | 0.9 | 3.5 | 0.00 | 0.00 | 0.00 | 86 | 1014.3 |
| 20260903074020 | 73 | 224 | 0.9 | 3.5 | 0.00 | 0.00 | 0.00 | 86 | 1014.2 |
| 20260903073518 | 73 | 0 | 0.9 | 3.5 | 0.00 | 0.00 | 0.00 | 87 | 1014.1 |
| 20260903073039 | 73 | 240 | 0.9 | 3.5 | 0.00 | 0.00 | 0.00 | 88 | 1014.2 |
| 20260903072519 | 73 | 226 | 0.0 | 2.6 | 0.00 | 0.00 | 0.00 | 87 | 1014.3 |
| 20260903072017 | 73 | 0 | 0.0 | 2.6 | 0.00 | 0.00 | 0.00 | 88 | 1014.3 |
| 20260903071535 | 72 | 0 | 0.0 | 1.7 | 0.00 | 0.00 | 0.00 | 89 | 1014.3 |
| 20260903071018 | 72 | 0 | 0.0 | 0.9 | 0.00 | 0.00 | 0.00 | 90 | 1014.3 |
| 20260903070519 | 72 | 0 | 0.0 | 0.0 | 0.00 | 0.00 | 0.00 | 90 | 1014.3 |
| 20260903070035 | 72 | 0 | 0.0 | 1.7 | 0.00 | 0.00 | 0.00 | 91 | 1014.3 |
| 20260903065517 | 71 | 0 | 0.0 | 1.7 | 0.00 | 0.00 | 0.00 | 91 | 1014.3 |
| 20260903065017 | 71 | 0 | 0.0 | 1.7 | 0.00 | 0.00 | 0.00 | 92 | 1014.4 |
| 20260903064539 | 71 | 0 | 0.0 | 0.0 | 0.00 | 0.00 | 0.00 | 91 | 1014.2 |
| 20260903064017 | 71 | 0 | 0.0 | 0.0 | 0.00 | 0.00 | 0.00 | 91 | 1014.0 |
| 20260903063522 | 71 | 0 | 0.0 | 0.0 | 0.00 | 0.00 | 0.00 | 91 | 1014.0 |
| 20260903063036 | 72 | 0 | 0.0 | 1.7 | 0.00 | 0.00 | 0.00 | 91 | 1014.0 |
| 20260903062518 | 72 | 0 | 0.0 | 2.6 | 0.00 | 0.00 | 0.00 | 91 | 1014.2 |
| 20260903062017 | 72 | 0 | 0.0 | 3.5 | 0.00 | 0.00 | 0.00 | 91 | 1014.3 |
| 20260903061538 | 72 | 0 | 0.0 | 3.5 | 0.00 | 0.00 | 0.00 | 91 | 1014.3 |
| 20260903061024 | 72 | 172 | 0.0 | 0.0 | 0.00 | 0.00 | 0.00 | 92 | 1014.4 |
| 20260903060517 | 72 | 0 | 0.0 | 0.0 | 0.00 | 0.00 | 0.00 | 91 | 1014.4 |
| 20260903060041 | 72 | 0 | 0.0 | 0.0 | 0.00 | 0.00 | 0.00 | 91 | 1014.3 |
| 20260903055518 | 72 | 0 | 0.0 | 0.0 | 0.00 | 0.00 | 0.00 | 91 | 1014.4 |
| 20260903055020 | 72 | 0 | 0.0 | 0.0 | 0.00 | 0.00 | 0.00 | 91 | 1014.6 |
| 20260903054536 | 72 | 0 | 0.0 | 0.0 | 0.00 | 0.00 | 0.00 | 90 | 1014.4 |
| 20260903054018 | 72 | 0 | 0.0 | 0.0 | 0.00 | 0.00 | 0.00 | 90 | 1014.3 |
| 20260903053522 | 72 | 0 | 0.0 | 0.0 | 0.00 | 0.00 | 0.00 | 90 | 1014.4 |
| 20260903053054 | 72 | 0 | 0.0 | 2.6 | 0.00 | 0.00 | 0.00 | 90 | 1014.4 |
| 20260903052523 | 72 | 0 | 0.0 | 2.6 | 0.00 | 0.00 | 0.00 | 90 | 1014.5 |
| 20260903052018 | 72 | 0 | 0.0 | 1.7 | 0.00 | 0.00 | 0.00 | 90 | 1014.5 |
| 20260903051538 | 72 | 160 | 0.0 | 2.6 | 0.00 | 0.00 | 0.00 | 90 | 1014.5 |
| 20260903051018 | 72 | 0 | 0.0 | 2.6 | 0.00 | 0.00 | 0.00 | 90 | 1014.6 |
| 20260903050519 | 72 | 172 | 0.0 | 2.6 | 0.00 | 0.00 | 0.00 | 90 | 1014.5 |
| 20260903050045 | 72 | 0 | 0.0 | 0.0 | 0.00 | 0.00 | 0.00 | 90 | 1014.5 |
| 20260903045519 | 73 | 0 | 0.0 | 0.0 | 0.00 | 0.00 | 0.00 | 90 | 1014.5 |
| 20260903045020 | 73 | 0 | 0.0 | 0.0 | 0.00 | 0.00 | 0.00 | 89 | 1014.4 |
| 20260903044535 | 73 | 0 | 0.0 | 0.9 | 0.00 | 0.00 | 0.00 | 89 | 1014.4 |
| 20260903044017 | 73 | 0 | 0.0 | 1.7 | 0.00 | 0.00 | 0.00 | 89 | 1014.3 |
| 20260903043520 | 73 | 0 | 0.0 | 4.3 | 0.00 | 0.00 | 0.00 | 89 | 1014.2 |
| 20260903043039 | 73 | 189 | 0.9 | 5.2 | 0.00 | 0.00 | 0.00 | 89 | 1014.2 |
| 20260903042516 | 73 | 190 | 1.7 | 7.0 | 0.00 | 0.00 | 0.00 | 89 | 1014.4 |
| 20260903042022 | 74 | 0 | 0.0 | 7.0 | 0.00 | 0.00 | 0.00 | 89 | 1014.3 |
| 20260903041539 | 74 | 183 | 1.7 | 7.0 | 0.00 | 0.00 | 0.00 | 89 | 1014.2 |
| 20260903041019 | 74 | 242 | 0.0 | 2.6 | 0.00 | 0.00 | 0.00 | 89 | 1014.3 |
| 20260903040520 | 74 | 212 | 0.0 | 4.3 | 0.00 | 0.00 | 0.00 | 89 | 1014.1 |
| 20260903040037 | 74 | 0 | 0.9 | 7.0 | 0.00 | 0.00 | 0.00 | 88 | 1014.0 |
| 20260903035524 | 75 | 0 | 1.7 | 7.0 | 0.00 | 0.00 | 0.00 | 88 | 1014.2 |
| 20260903035016 | 75 | 186 | 2.6 | 9.6 | 0.00 | 0.00 | 0.00 | 87 | 1014.3 |
| 20260903034534 | 75 | 155 | 2.6 | 9.6 | 0.00 | 0.00 | 0.00 | 87 | 1014.2 |
| 20260903034019 | 76 | 163 | 3.5 | 9.6 | 0.00 | 0.00 | 0.00 | 86 | 1014.3 |
| 20260903033518 | 76 | 185 | 3.5 | 6.1 | 0.00 | 0.00 | 0.00 | 86 | 1014.2 |
| 20260903033038 | 76 | 189 | 1.7 | 8.7 | 0.00 | 0.00 | 0.00 | 86 | 1014.2 |
| 20260903032518 | 76 | 181 | 3.5 | 8.7 | 0.00 | 0.00 | 0.00 | 85 | 1014.0 |
| 20260903032022 | 76 | 191 | 3.5 | 7.8 | 0.00 | 0.00 | 0.00 | 85 | 1014.2 |
| 20260903031539 | 75 | 177 | 2.6 | 5.2 | 0.00 | 0.00 | 0.00 | 85 | 1014.3 |
| 20260903031019 | 75 | 0 | 0.0 | 2.6 | 0.00 | 0.00 | 0.00 | 86 | 1013.8 |
| 20260903030519 | 75 | 0 | 0.0 | 2.6 | 0.00 | 0.00 | 0.00 | 85 | 1013.5 |
| 20260903030037 | 75 | 257 | 0.0 | 0.0 | 0.00 | 0.00 | 0.00 | 85 | 1013.2 |
| 20260903025522 | 75 | 0 | 0.0 | 0.9 | 0.00 | 0.00 | 0.00 | 86 | 1013.6 |
| 20260903025017 | 75 | 0 | 0.0 | 0.9 | 0.00 | 0.00 | 0.00 | 85 | 1013.2 |
| 20260903024538 | 76 | 0 | 0.0 | 0.9 | 0.00 | 0.00 | 0.00 | 84 | 1012.8 |
| 20260903024018 | 76 | 0 | 0.0 | 0.9 | 0.00 | 0.00 | 0.00 | 84 | 1013.2 |
| 20260903023517 | 76 | 0 | 0.0 | 0.9 | 0.00 | 0.00 | 0.00 | 83 | 1013.3 |
| 20260903023040 | 76 | 0 | 0.0 | 0.9 | 0.00 | 0.00 | 0.00 | 83 | 1013.1 |
| 20260903022518 | 76 | 0 | 0.0 | 0.9 | 0.00 | 0.00 | 0.00 | 83 | 1013.1 |
| 20260903022019 | 76 | 0 | 0.0 | 0.9 | 0.00 | 0.00 | 0.00 | 82 | 1013.3 |
| 20260903021548 | 77 | 0 | 0.0 | 0.9 | 0.00 | 0.00 | 0.00 | 81 | 1013.7 |
| 20260903021016 | 77 | 0 | 0.0 | 1.7 | 0.00 | 0.00 | 0.00 | 80 | 1013.9 |
| 20260903020517 | 77 | 0 | 0.0 | 1.7 | 0.00 | 0.00 | 0.00 | 80 | 1014.2 |
| 20260903020034 | 77 | 0 | 0.0 | 1.7 | 0.00 | 0.00 | 0.00 | 79 | 1014.3 |
| 20260903015520 | 77 | 0 | 0.0 | 3.5 | 0.00 | 0.00 | 0.00 | 79 | 1014.3 |
| 20260903015018 | 77 | 354 | 0.0 | 3.5 | 0.00 | 0.00 | 0.00 | 78 | 1014.2 |
| 20260903014535 | 78 | 0 | 0.9 | 3.5 | 0.00 | 0.00 | 0.00 | 77 | 1014.3 |
| 20260903014019 | 78 | 26 | 0.9 | 4.3 | 0.00 | 0.00 | 0.00 | 77 | 1014.4 |
| 20260903013517 | 79 | 18 | 0.0 | 4.3 | 0.00 | 0.00 | 0.00 | 76 | 1014.2 |
| 20260903013034 | 79 | 25 | 1.7 | 7.0 | 0.00 | 0.00 | 0.00 | 75 | 1014.1 |
| 20260903012521 | 80 | 318 | 2.6 | 8.7 | 0.00 | 0.00 | 0.00 | 74 | 1014.1 |
| 20260903012016 | 81 | 350 | 2.6 | 8.7 | 0.00 | 0.00 | 0.00 | 73 | 1014.0 |
| 20260903011540 | 82 | 344 | 2.6 | 7.0 | 0.00 | 0.00 | 0.00 | 70 | 1013.9 |
| 20260903011020 | 82 | 297 | 0.0 | 7.0 | 0.00 | 0.00 | 0.00 | 68 | 1013.8 |
| 20260903010519 | 82 | 0 | 0.0 | 2.6 | 0.00 | 0.00 | 0.00 | 67 | 1013.6 |
| 20260903010038 | 82 | 0 | 0.0 | 2.6 | 0.00 | 0.00 | 0.00 | 64 | 1013.4 |
| 20260903005521 | 82 | 0 | 0.9 | 4.3 | 0.00 | 0.00 | 0.00 | 63 | 1013.3 |
| 20260903005018 | 83 | 0 | 0.0 | 4.3 | 0.00 | 0.00 | 0.00 | 64 | 1013.2 |
| 20260903004539 | 83 | 215 | 0.9 | 5.2 | 0.00 | 0.00 | 0.00 | 62 | 1013.2 |
| 20260903004017 | 83 | 236 | 0.9 | 7.8 | 0.00 | 0.00 | 0.00 | 62 | 1013.1 |
| 20260903003520 | 84 | 219 | 1.7 | 13.9 | 0.00 | 0.00 | 0.00 | 61 | 1013.2 |
| 20260903003036 | 84 | 219 | 2.6 | 18.2 | 0.00 | 0.00 | 0.00 | 62 | 1013.1 |
| 20260903002518 | 85 | 229 | 7.8 | 18.2 | 0.00 | 0.00 | 0.00 | 61 | 1013.1 |
| 20260903002017 | 85 | 229 | 3.5 | 12.2 | 0.00 | 0.00 | 0.00 | 65 | 1012.9 |
| 20260903001532 | 85 | 174 | 0.0 | 2.6 | 0.00 | 0.00 | 0.00 | 67 | 1012.8 |
| 20260903001018 | 85 | 248 | 0.0 | 1.7 | 0.00 | 0.00 | 0.00 | 66 | 1012.7 |
| 20260903000519 | 85 | 0 | 0.0 | 1.7 | 0.00 | 0.00 | 0.00 | 67 | 1013.0 |
| 20260903000037 | 86 | 0 | 0.0 | 0.9 | 0.00 | 0.00 | 0.00 | 66 | 1013.0 |
| 20260902235523 | 86 | 0 | 0.0 | 0.9 | 0.00 | 0.00 | 0.00 | 65 | 1012.9 |
| 20260902235018 | 86 | 168 | 0.0 | 3.5 | 0.00 | 0.00 | 0.00 | 66 | 1013.1 |
| 20260902234538 | 86 | 0 | 0.0 | 3.5 | 0.00 | 0.00 | 0.00 | 66 | 1013.2 |
| 20260902234016 | 86 | 0 | 0.0 | 3.5 | 0.00 | 0.00 | 0.00 | 66 | 1013.2 |
| 20260902233518 | 87 | 0 | 0.0 | 1.7 | 0.00 | 0.00 | 0.00 | 64 | 1013.2 |
| 20260902233034 | 87 | 0 | 0.0 | 0.9 | 0.00 | 0.00 | 0.00 | 65 | 1013.2 |
| 20260902232517 | 87 | 0 | 0.0 | 2.6 | 0.00 | 0.00 | 0.00 | 65 | 1013.1 |
| 20260902232016 | 87 | 0 | 0.0 | 2.6 | 0.00 | 0.00 | 0.00 | 63 | 1013.2 |
| 20260902231537 | 88 | 0 | 0.0 | 2.6 | 0.00 | 0.00 | 0.00 | 63 | 1013.2 |
| 20260902231017 | 88 | 276 | 0.0 | 2.6 | 0.00 | 0.00 | 0.00 | 62 | 1013.4 |
| 20260902230517 | 88 | 0 | 0.9 | 6.1 | 0.00 | 0.00 | 0.00 | 61 | 1013.4 |
| 20260902230039 | 88 | 0 | 0.0 | 7.8 | 0.00 | 0.00 | 0.00 | 60 | 1013.3 |
| 20260902225520 | 88 | 273 | 1.7 | 8.7 | 0.00 | 0.00 | 0.00 | 60 | 1013.4 |
| 20260902225018 | 89 | 239 | 3.5 | 8.7 | 0.00 | 0.00 | 0.00 | 59 | 1013.3 |
| 20260902224542 | 89 | 274 | 2.6 | 8.7 | 0.00 | 0.00 | 0.00 | 59 | 1013.2 |
| 20260902224018 | 89 | 234 | 2.6 | 13.0 | 0.00 | 0.00 | 0.00 | 58 | 1013.2 |
| 20260902223516 | 89 | 234 | 6.1 | 13.0 | 0.00 | 0.00 | 0.00 | 58 | 1013.0 |
| 20260902223041 | 89 | 260 | 6.1 | 12.2 | 0.00 | 0.00 | 0.00 | 57 | 1012.8 |
| 20260902222519 | 90 | 227 | 4.3 | 12.2 | 0.00 | 0.00 | 0.00 | 57 | 1012.7 |
| 20260902222018 | 90 | 155 | 5.2 | 12.2 | 0.00 | 0.00 | 0.00 | 56 | 1012.8 |
| 20260902221542 | 91 | 225 | 3.5 | 11.3 | 0.00 | 0.00 | 0.00 | 56 | 1012.7 |
| 20260902221020 | 90 | 236 | 2.6 | 8.7 | 0.00 | 0.00 | 0.00 | 57 | 1012.8 |
| 20260902220517 | 90 | 225 | 0.0 | 8.7 | 0.00 | 0.00 | 0.00 | 58 | 1012.8 |
| 20260902220045 | 90 | 214 | 3.5 | 8.7 | 0.00 | 0.00 | 0.00 | 57 | 1012.7 |
| 20260902215516 | 90 | 253 | 2.6 | 10.4 | 0.00 | 0.00 | 0.00 | 55 | 1012.9 |
| 20260902215016 | 90 | 228 | 4.3 | 10.4 | 0.00 | 0.00 | 0.00 | 55 | 1012.7 |
| 20260902214539 | 90 | 148 | 4.3 | 12.2 | 0.00 | 0.00 | 0.00 | 55 | 1012.4 |
| 20260902214018 | 90 | 254 | 5.2 | 12.2 | 0.00 | 0.00 | 0.00 | 54 | 1012.5 |
| 20260902213521 | 90 | 208 | 4.3 | 12.2 | 0.00 | 0.00 | 0.00 | 54 | 1012.5 |
| 20260902213038 | 90 | 226 | 4.3 | 11.3 | 0.00 | 0.00 | 0.00 | 53 | 1012.6 |
| 20260902212520 | 91 | 269 | 4.3 | 9.6 | 0.00 | 0.00 | 0.00 | 53 | 1012.6 |
| 20260902212020 | 91 | 199 | 2.6 | 9.6 | 0.00 | 0.00 | 0.00 | 56 | 1012.7 |
| 20260902211533 | 90 | 217 | 4.3 | 12.2 | 0.00 | 0.00 | 0.00 | 56 | 1012.8 |
| 20260902211019 | 90 | 220 | 5.2 | 12.2 | 0.00 | 0.00 | 0.00 | 57 | 1012.9 |
| 20260902210520 | 90 | 207 | 3.5 | 9.6 | 0.00 | 0.00 | 0.00 | 56 | 1012.8 |
| 20260902210105 | 91 | 263 | 1.7 | 9.6 | 0.00 | 0.00 | 0.00 | 56 | 1012.9 |
| 20260902205518 | 90 | 229 | 1.7 | 8.7 | 0.00 | 0.00 | 0.00 | 55 | 1013.0 |
| 20260902205019 | 90 | 226 | 3.5 | 9.6 | 0.00 | 0.00 | 0.00 | 54 | 1013.1 |
| 20260902204541 | 90 | 222 | 3.5 | 14.8 | 0.00 | 0.00 | 0.00 | 55 | 1013.2 |
| 20260902204021 | 90 | 135 | 7.8 | 14.8 | 0.00 | 0.00 | 0.00 | 53 | 1013.2 |
| 20260902203520 | 90 | 234 | 6.1 | 14.8 | 0.00 | 0.00 | 0.00 | 54 | 1013.3 |
| 20260902203038 | 91 | 238 | 3.5 | 11.3 | 0.00 | 0.00 | 0.00 | 55 | 1013.4 |
| 20260902202519 | 91 | 241 | 4.3 | 11.3 | 0.00 | 0.00 | 0.00 | 55 | 1013.4 |
| 20260902202018 | 91 | 217 | 3.5 | 11.3 | 0.00 | 0.00 | 0.00 | 55 | 1013.4 |
| 20260902201537 | 91 | 218 | 3.5 | 10.4 | 0.00 | 0.00 | 0.00 | 55 | 1013.5 |
| 20260902201019 | 91 | 175 | 5.2 | 9.6 | 0.00 | 0.00 | 0.00 | 54 | 1013.6 |
| 20260902200519 | 92 | 247 | 4.3 | 13.0 | 0.00 | 0.00 | 0.00 | 53 | 1013.7 |
| 20260902200036 | 92 | 241 | 4.3 | 13.9 | 0.00 | 0.00 | 0.00 | 53 | 1013.9 |
| 20260902195516 | 92 | 220 | 6.1 | 13.9 | 0.00 | 0.00 | 0.00 | 52 | 1013.9 |
| 20260902195017 | 92 | 203 | 4.3 | 12.2 | 0.00 | 0.00 | 0.00 | 51 | 1014.0 |
| 20260902194539 | 92 | 261 | 4.3 | 12.2 | 0.00 | 0.00 | 0.00 | 53 | 1014.0 |
| 20260902194016 | 92 | 240 | 3.5 | 10.4 | 0.00 | 0.00 | 0.00 | 53 | 1013.9 |
| 20260902193519 | 92 | 316 | 3.5 | 7.0 | 0.00 | 0.00 | 0.00 | 53 | 1014.1 |
| 20260902193040 | 92 | 271 | 2.6 | 12.2 | 0.00 | 0.00 | 0.00 | 53 | 1014.2 |
| 20260902192519 | 91 | 250 | 2.6 | 12.2 | 0.00 | 0.00 | 0.00 | 53 | 1014.3 |
| 20260902192019 | 92 | 277 | 3.5 | 12.2 | 0.00 | 0.00 | 0.00 | 54 | 1014.3 |
| 20260902191543 | 92 | 241 | 6.1 | 13.0 | 0.00 | 0.00 | 0.00 | 51 | 1014.4 |
| 20260902191020 | 92 | 264 | 4.3 | 13.9 | 0.00 | 0.00 | 0.00 | 51 | 1014.4 |
| 20260902190518 | 92 | 206 | 6.1 | 13.9 | 0.00 | 0.00 | 0.00 | 50 | 1014.4 |
| 20260902190039 | 91 | 269 | 4.3 | 10.4 | 0.00 | 0.00 | 0.00 | 52 | 1014.4 |
| 20260902185518 | 91 | 161 | 4.3 | 12.2 | 0.00 | 0.00 | 0.00 | 50 | 1014.4 |
| 20260902185018 | 91 | 217 | 5.2 | 12.2 | 0.00 | 0.00 | 0.00 | 52 | 1014.4 |
| 20260902184540 | 91 | 218 | 5.2 | 13.0 | 0.00 | 0.00 | 0.00 | 52 | 1014.3 |
| 20260902184018 | 92 | 231 | 3.5 | 13.0 | 0.00 | 0.00 | 0.00 | 54 | 1014.2 |
| 20260902183518 | 92 | 240 | 3.5 | 13.0 | 0.00 | 0.00 | 0.00 | 53 | 1014.2 |
| 20260902183039 | 91 | 219 | 4.3 | 9.6 | 0.00 | 0.00 | 0.00 | 55 | 1014.2 |
| 20260902182523 | 92 | 225 | 3.5 | 9.6 | 0.00 | 0.00 | 0.00 | 54 | 1014.2 |
| 20260902182021 | 91 | 242 | 2.6 | 7.0 | 0.00 | 0.00 | 0.00 | 55 | 1014.4 |
| 20260902181540 | 91 | 271 | 1.7 | 9.6 | 0.00 | 0.00 | 0.00 | 55 | 1014.4 |
| 20260902181028 | 91 | 266 | 4.3 | 9.6 | 0.00 | 0.00 | 0.00 | 54 | 1014.3 |
| 20260902180518 | 91 | 212 | 2.6 | 8.7 | 0.00 | 0.00 | 0.00 | 55 | 1014.3 |
| 20260902180050 | 91 | 212 | 5.2 | 10.4 | 0.00 | 0.00 | 0.00 | 56 | 1014.2 |
| 20260902175520 | 91 | 172 | 4.3 | 10.4 | 0.00 | 0.00 | 0.00 | 56 | 1014.2 |
| 20260902175022 | 91 | 170 | 3.5 | 7.8 | 0.00 | 0.00 | 0.00 | 57 | 1014.3 |
| 20260902174538 | 91 | 201 | 2.6 | 8.7 | 0.00 | 0.00 | 0.00 | 57 | 1014.4 |
| 20260902174020 | 90 | 236 | 2.6 | 8.7 | 0.00 | 0.00 | 0.00 | 58 | 1014.5 |
| 20260902173520 | 90 | 243 | 3.5 | 7.8 | 0.00 | 0.00 | 0.00 | 58 | 1014.6 |
| 20260902173034 | 91 | 225 | 1.7 | 9.6 | 0.00 | 0.00 | 0.00 | 58 | 1014.7 |
| 20260902172519 | 91 | 312 | 1.7 | 10.4 | 0.00 | 0.00 | 0.00 | 57 | 1014.9 |
| 20260902172019 | 90 | 200 | 4.3 | 10.4 | 0.00 | 0.00 | 0.00 | 57 | 1015.0 |
| 20260902171540 | 91 | 186 | 2.6 | 10.4 | 0.00 | 0.00 | 0.00 | 57 | 1015.0 |
| 20260902171021 | 90 | 227 | 2.6 | 7.8 | 0.00 | 0.00 | 0.00 | 60 | 1015.1 |
| 20260902170520 | 90 | 217 | 1.7 | 7.8 | 0.00 | 0.00 | 0.00 | 60 | 1015.3 |
| 20260902170038 | 90 | 260 | 0.9 | 6.1 | 0.00 | 0.00 | 0.00 | 61 | 1015.3 |